sensor_id;sensor_type;location;lat;lon;timestamp;pressure;altitude;pressure_sealevel;temperature;humidity
8756;BME280;4414;42.670;23.228;2022-09-09T00:02:27;44906.41;;;-137.01;99.44
8756;BME280;4414;42.670;23.228;2022-09-09T00:05:02;44879.63;;;-137.01;99.31
8756;BME280;4414;42.670;23.228;2022-09-09T00:07:43;44889.19;;;-137.01;99.78
8756;BME280;4414;42.670;23.228;2022-09-09T00:10:20;44898.75;;;-137.01;99.45
8756;BME280;4414;42.670;23.228;2022-09-09T00:12:57;44887.28;;;-137.01;99.37
8756;BME280;4414;42.670;23.228;2022-09-09T00:15:30;44898.75;;;-137.01;99.17
8756;BME280;4414;42.670;23.228;2022-09-09T00:18:07;44894.94;;;-137.01;99.07
8756;BME280;4414;42.670;23.228;2022-09-09T00:20:41;44929.38;;;-137.01;98.97
8756;BME280;4414;42.670;23.228;2022-09-09T00:23:14;44889.19;;;-137.01;98.41
8756;BME280;4414;42.670;23.228;2022-09-09T00:25:51;44893.03;;;-137.01;98.16
8756;BME280;4414;42.670;23.228;2022-09-09T00:28:23;44908.34;;;-137.01;98.41
8756;BME280;4414;42.670;23.228;2022-09-09T00:30:51;44914.06;;;-137.01;98.02
8756;BME280;4414;42.670;23.228;2022-09-09T00:33:20;44910.25;;;-137.01;98.43
8756;BME280;4414;42.670;23.228;2022-09-09T00:35:51;44935.09;;;-137.01;98.13
8756;BME280;4414;42.670;23.228;2022-09-09T00:38:22;44921.72;;;-137.01;98.32
8756;BME280;4414;42.670;23.228;2022-09-09T00:40:52;44914.06;;;-137.01;98.34
8756;BME280;4414;42.670;23.228;2022-09-09T00:43:26;44927.47;;;-137.01;97.81
8756;BME280;4414;42.670;23.228;2022-09-09T00:48:57;44891.13;;;-137.01;98.22
8756;BME280;4414;42.670;23.228;2022-09-09T00:51:36;44914.06;;;-137.01;98.46
8756;BME280;4414;42.670;23.228;2022-09-09T00:54:18;44921.72;;;-137.01;98.63
8756;BME280;4414;42.670;23.228;2022-09-09T00:56:49;44906.41;;;-137.01;99.05
8756;BME280;4414;42.670;23.228;2022-09-09T00:59:25;44908.34;;;-137.01;99.29
8756;BME280;4414;42.670;23.228;2022-09-09T01:01:54;44891.13;;;-137.01;99.52
8756;BME280;4414;42.670;23.228;2022-09-09T01:04:29;44910.25;;;-137.01;100.00
8756;BME280;4414;42.670;23.228;2022-09-09T01:07:05;44906.41;;;-137.01;100.00
8756;BME280;4414;42.670;23.228;2022-09-09T01:09:44;44906.41;;;-137.01;100.00
8756;BME280;4414;42.670;23.228;2022-09-09T01:12:16;44889.19;;;-137.01;100.00
8756;BME280;4414;42.670;23.228;2022-09-09T01:14:47;44902.59;;;-137.01;100.00
8756;BME280;4414;42.670;23.228;2022-09-09T01:17:17;44917.91;;;-137.01;100.00
8756;BME280;4414;42.670;23.228;2022-09-09T01:19:55;44887.28;;;-137.01;100.00
8756;BME280;4414;42.670;23.228;2022-09-09T01:22:34;44883.47;;;-137.01;100.00
8756;BME280;4414;42.670;23.228;2022-09-09T01:25:20;44906.41;;;-137.01;100.00
8756;BME280;4414;42.670;23.228;2022-09-09T01:27:51;44893.03;;;-137.01;100.00
8756;BME280;4414;42.670;23.228;2022-09-09T01:30:20;44891.13;;;-137.01;100.00
8756;BME280;4414;42.670;23.228;2022-09-09T01:32:50;44904.50;;;-137.01;100.00
8756;BME280;4414;42.670;23.228;2022-09-09T01:35:28;44893.03;;;-137.01;100.00
8756;BME280;4414;42.670;23.228;2022-09-09T01:37:56;44894.94;;;-137.01;100.00
8756;BME280;4414;42.670;23.228;2022-09-09T01:40:23;44898.75;;;-137.01;100.00
8756;BME280;4414;42.670;23.228;2022-09-09T01:42:51;44914.06;;;-137.01;100.00
8756;BME280;4414;42.670;23.228;2022-09-09T01:45:19;44906.41;;;-137.01;100.00
8756;BME280;4414;42.670;23.228;2022-09-09T01:47:46;44902.59;;;-137.01;100.00
8756;BME280;4414;42.670;23.228;2022-09-09T01:50:15;44914.06;;;-137.01;100.00
8756;BME280;4414;42.670;23.228;2022-09-09T01:52:42;44906.41;;;-137.01;100.00
8756;BME280;4414;42.670;23.228;2022-09-09T01:55:10;44902.59;;;-137.01;100.00
8756;BME280;4414;42.670;23.228;2022-09-09T01:57:44;44902.59;;;-137.01;100.00
8756;BME280;4414;42.670;23.228;2022-09-09T02:00:17;44921.72;;;-137.01;100.00
8756;BME280;4414;42.670;23.228;2022-09-09T02:02:48;44891.13;;;-137.01;100.00
8756;BME280;4414;42.670;23.228;2022-09-09T02:05:29;44900.69;;;-137.01;100.00
8756;BME280;4414;42.670;23.228;2022-09-09T02:08:03;44904.50;;;-137.01;100.00
8756;BME280;4414;42.670;23.228;2022-09-09T02:10:33;44919.81;;;-137.01;100.00
8756;BME280;4414;42.670;23.228;2022-09-09T02:13:04;44917.91;;;-137.01;100.00
8756;BME280;4414;42.670;23.228;2022-09-09T02:15:40;44915.97;;;-137.01;100.00
8756;BME280;4414;42.670;23.228;2022-09-09T02:18:11;44900.69;;;-137.01;100.00
8756;BME280;4414;42.670;23.228;2022-09-09T02:20:39;44900.69;;;-137.01;100.00
8756;BME280;4414;42.670;23.228;2022-09-09T02:23:08;44906.41;;;-137.01;100.00
8756;BME280;4414;42.670;23.228;2022-09-09T02:25:37;44864.34;;;-137.01;100.00
8756;BME280;4414;42.670;23.228;2022-09-09T02:28:07;44898.75;;;-137.01;100.00
8756;BME280;4414;42.670;23.228;2022-09-09T02:30:38;44914.06;;;-137.01;100.00
8756;BME280;4414;42.670;23.228;2022-09-09T02:33:07;44912.16;;;-137.01;100.00
8756;BME280;4414;42.670;23.228;2022-09-09T02:35:35;44887.28;;;-137.01;100.00
8756;BME280;4414;42.670;23.228;2022-09-09T02:38:06;44896.84;;;-137.01;100.00
8756;BME280;4414;42.670;23.228;2022-09-09T02:40:34;44917.91;;;-137.01;100.00
8756;BME280;4414;42.670;23.228;2022-09-09T02:43:01;44917.91;;;-137.01;100.00
8756;BME280;4414;42.670;23.228;2022-09-09T02:45:34;44887.28;;;-137.01;100.00
8756;BME280;4414;42.670;23.228;2022-09-09T02:48:10;44902.59;;;-137.01;100.00
8756;BME280;4414;42.670;23.228;2022-09-09T02:50:49;44889.19;;;-137.01;100.00
8756;BME280;4414;42.670;23.228;2022-09-09T02:53:24;44914.06;;;-137.01;100.00
8756;BME280;4414;42.670;23.228;2022-09-09T02:56:00;44893.03;;;-137.01;100.00
8756;BME280;4414;42.670;23.228;2022-09-09T02:58:28;44902.59;;;-137.01;100.00
8756;BME280;4414;42.670;23.228;2022-09-09T03:00:56;44887.28;;;-137.01;100.00
8756;BME280;4414;42.670;23.228;2022-09-09T03:03:24;44900.69;;;-137.01;100.00
8756;BME280;4414;42.670;23.228;2022-09-09T03:05:51;44906.41;;;-137.01;100.00
8756;BME280;4414;42.670;23.228;2022-09-09T03:08:18;44929.38;;;-137.01;100.00
8756;BME280;4414;42.670;23.228;2022-09-09T03:10:44;44900.69;;;-137.01;100.00
8756;BME280;4414;42.670;23.228;2022-09-09T03:13:11;44912.16;;;-137.01;100.00
8756;BME280;4414;42.670;23.228;2022-09-09T03:15:40;44910.25;;;-137.01;100.00
8756;BME280;4414;42.670;23.228;2022-09-09T03:18:07;44887.28;;;-137.01;100.00
8756;BME280;4414;42.670;23.228;2022-09-09T03:20:35;44906.41;;;-137.01;100.00
8756;BME280;4414;42.670;23.228;2022-09-09T03:23:02;44906.41;;;-137.01;100.00
8756;BME280;4414;42.670;23.228;2022-09-09T03:25:29;44904.50;;;-137.01;100.00
8756;BME280;4414;42.670;23.228;2022-09-09T03:27:56;44919.81;;;-137.01;100.00
8756;BME280;4414;42.670;23.228;2022-09-09T03:30:23;44893.03;;;-137.01;100.00
8756;BME280;4414;42.670;23.228;2022-09-09T03:32:50;44910.25;;;-137.01;100.00
8756;BME280;4414;42.670;23.228;2022-09-09T03:35:17;44898.75;;;-137.01;100.00
8756;BME280;4414;42.670;23.228;2022-09-09T03:37:46;44902.59;;;-137.01;100.00
8756;BME280;4414;42.670;23.228;2022-09-09T03:40:13;44923.63;;;-137.01;100.00
8756;BME280;4414;42.670;23.228;2022-09-09T03:42:40;44898.75;;;-137.01;100.00
8756;BME280;4414;42.670;23.228;2022-09-09T03:45:09;44894.94;;;-137.01;100.00
8756;BME280;4414;42.670;23.228;2022-09-09T03:47:35;44906.41;;;-137.01;100.00
8756;BME280;4414;42.670;23.228;2022-09-09T03:50:03;44891.13;;;-137.01;100.00
8756;BME280;4414;42.670;23.228;2022-09-09T03:52:34;44908.34;;;-137.01;100.00
8756;BME280;4414;42.670;23.228;2022-09-09T03:55:03;44910.25;;;-137.01;100.00
8756;BME280;4414;42.670;23.228;2022-09-09T03:57:30;44912.16;;;-137.01;100.00
8756;BME280;4414;42.670;23.228;2022-09-09T03:59:57;44923.63;;;-137.01;100.00
8756;BME280;4414;42.670;23.228;2022-09-09T04:02:26;44898.75;;;-137.01;100.00
8756;BME280;4414;42.670;23.228;2022-09-09T04:04:53;44910.25;;;-137.01;100.00
8756;BME280;4414;42.670;23.228;2022-09-09T04:07:19;44917.91;;;-137.01;100.00
8756;BME280;4414;42.670;23.228;2022-09-09T04:09:46;44900.69;;;-137.01;100.00
8756;BME280;4414;42.670;23.228;2022-09-09T04:12:14;44906.41;;;-137.01;100.00
8756;BME280;4414;42.670;23.228;2022-09-09T04:14:41;44910.25;;;-137.01;100.00
8756;BME280;4414;42.670;23.228;2022-09-09T04:17:08;44898.75;;;-137.01;100.00
8756;BME280;4414;42.670;23.228;2022-09-09T04:19:35;44904.50;;;-137.01;100.00
8756;BME280;4414;42.670;23.228;2022-09-09T04:22:02;44898.75;;;-137.01;100.00
8756;BME280;4414;42.670;23.228;2022-09-09T04:24:28;44912.16;;;-137.01;100.00
8756;BME280;4414;42.670;23.228;2022-09-09T04:26:55;44902.59;;;-137.01;100.00
8756;BME280;4414;42.670;23.228;2022-09-09T04:29:23;44904.50;;;-137.01;100.00
8756;BME280;4414;42.670;23.228;2022-09-09T04:31:50;44889.19;;;-137.01;100.00
8756;BME280;4414;42.670;23.228;2022-09-09T04:34:17;44889.19;;;-137.01;100.00
8756;BME280;4414;42.670;23.228;2022-09-09T04:36:43;44914.06;;;-137.01;100.00
8756;BME280;4414;42.670;23.228;2022-09-09T04:39:11;44910.25;;;-137.01;100.00
8756;BME280;4414;42.670;23.228;2022-09-09T04:41:37;44902.59;;;-137.01;100.00
8756;BME280;4414;42.670;23.228;2022-09-09T04:44:04;44917.91;;;-137.01;100.00
8756;BME280;4414;42.670;23.228;2022-09-09T04:46:32;44931.28;;;-137.01;100.00
8756;BME280;4414;42.670;23.228;2022-09-09T04:48:59;44938.94;;;-137.01;100.00
8756;BME280;4414;42.670;23.228;2022-09-09T04:51:26;44921.72;;;-137.01;100.00
8756;BME280;4414;42.670;23.228;2022-09-09T04:53:53;44894.94;;;-137.01;100.00
8756;BME280;4414;42.670;23.228;2022-09-09T04:56:20;44908.34;;;-137.01;100.00
8756;BME280;4414;42.670;23.228;2022-09-09T04:58:47;44908.34;;;-137.01;100.00
8756;BME280;4414;42.670;23.228;2022-09-09T05:01:15;44902.59;;;-137.01;100.00
8756;BME280;4414;42.670;23.228;2022-09-09T05:03:45;44919.81;;;-137.01;100.00
8756;BME280;4414;42.670;23.228;2022-09-09T05:06:14;44898.75;;;-137.01;100.00
8756;BME280;4414;42.670;23.228;2022-09-09T05:08:42;44914.06;;;-137.01;100.00
8756;BME280;4414;42.670;23.228;2022-09-09T05:11:16;44925.53;;;-137.01;100.00
8756;BME280;4414;42.670;23.228;2022-09-09T05:13:43;44925.53;;;-137.01;99.13
8756;BME280;4414;42.670;23.228;2022-09-09T05:16:10;44929.38;;;-137.01;99.00
8756;BME280;4414;42.670;23.228;2022-09-09T05:18:37;44940.84;;;-137.01;99.77
8756;BME280;4414;42.670;23.228;2022-09-09T05:21:05;44898.75;;;-137.01;97.88
8756;BME280;4414;42.670;23.228;2022-09-09T05:23:33;44948.50;;;-137.01;98.94
8756;BME280;4414;42.670;23.228;2022-09-09T05:26:00;44898.75;;;-137.01;100.00
8756;BME280;4414;42.670;23.228;2022-09-09T05:28:28;44908.34;;;-137.01;98.94
8756;BME280;4414;42.670;23.228;2022-09-09T05:30:58;44910.25;;;-137.01;99.24
8756;BME280;4414;42.670;23.228;2022-09-09T05:33:27;44910.25;;;-137.01;98.26
8756;BME280;4414;42.670;23.228;2022-09-09T05:35:58;44915.97;;;-137.01;96.74
8756;BME280;4414;42.670;23.228;2022-09-09T05:38:26;44944.66;;;-137.01;94.21
8756;BME280;4414;42.670;23.228;2022-09-09T05:40:53;44914.06;;;-137.01;94.79
8756;BME280;4414;42.670;23.228;2022-09-09T05:43:21;44923.63;;;-137.01;93.70
8756;BME280;4414;42.670;23.228;2022-09-09T05:45:48;44925.53;;;-137.01;93.68
8756;BME280;4414;42.670;23.228;2022-09-09T05:48:15;44927.47;;;-137.01;93.96
8756;BME280;4414;42.670;23.228;2022-09-09T05:50:42;44914.06;;;-137.01;94.00
8756;BME280;4414;42.670;23.228;2022-09-09T05:53:10;44933.19;;;-137.01;93.55
8756;BME280;4414;42.670;23.228;2022-09-09T05:55:38;44908.34;;;-137.01;92.32
8756;BME280;4414;42.670;23.228;2022-09-09T05:58:05;44900.69;;;-137.01;91.80
8756;BME280;4414;42.670;23.228;2022-09-09T06:00:32;44925.53;;;-137.01;91.34
8756;BME280;4414;42.670;23.228;2022-09-09T06:02:59;44925.53;;;-137.01;91.95
8756;BME280;4414;42.670;23.228;2022-09-09T06:05:25;44931.28;;;-137.01;90.80
8756;BME280;4414;42.670;23.228;2022-09-09T06:07:53;44925.53;;;-137.01;90.06
8756;BME280;4414;42.670;23.228;2022-09-09T06:10:21;44925.53;;;-137.01;89.83
8756;BME280;4414;42.670;23.228;2022-09-09T06:12:52;44908.34;;;-137.01;90.29
8756;BME280;4414;42.670;23.228;2022-09-09T06:15:19;44929.38;;;-137.01;90.37
8756;BME280;4414;42.670;23.228;2022-09-09T06:17:45;44910.25;;;-137.01;90.26
8756;BME280;4414;42.670;23.228;2022-09-09T06:20:12;44938.94;;;-137.01;90.49
8756;BME280;4414;42.670;23.228;2022-09-09T06:22:39;44923.63;;;-137.01;89.11
8756;BME280;4414;42.670;23.228;2022-09-09T06:25:08;44919.81;;;-137.01;87.62
8756;BME280;4414;42.670;23.228;2022-09-09T06:27:34;44925.53;;;-137.01;86.32
8756;BME280;4414;42.670;23.228;2022-09-09T06:30:03;44929.38;;;-137.01;85.72
8756;BME280;4414;42.670;23.228;2022-09-09T06:32:30;44944.66;;;-137.01;86.90
8756;BME280;4414;42.670;23.228;2022-09-09T06:35:00;44923.63;;;-137.01;88.61
8756;BME280;4414;42.670;23.228;2022-09-09T06:37:27;44937.03;;;-137.01;88.33
8756;BME280;4414;42.670;23.228;2022-09-09T06:39:54;44933.19;;;-137.01;87.05
8756;BME280;4414;42.670;23.228;2022-09-09T06:42:21;44919.81;;;-137.01;86.90
8756;BME280;4414;42.670;23.228;2022-09-09T06:44:48;44948.50;;;-137.01;86.58
8756;BME280;4414;42.670;23.228;2022-09-09T06:47:16;44938.94;;;-137.01;84.09
8756;BME280;4414;42.670;23.228;2022-09-09T06:49:43;44931.28;;;-137.01;86.11
8756;BME280;4414;42.670;23.228;2022-09-09T06:52:10;44950.41;;;-137.01;84.06
8756;BME280;4414;42.670;23.228;2022-09-09T06:54:37;44948.50;;;-137.01;84.09
8756;BME280;4414;42.670;23.228;2022-09-09T06:57:04;44946.59;;;-137.01;84.01
8756;BME280;4414;42.670;23.228;2022-09-09T06:59:32;44935.09;;;-137.01;83.14
8756;BME280;4414;42.670;23.228;2022-09-09T07:01:59;44942.75;;;-137.01;83.46
8756;BME280;4414;42.670;23.228;2022-09-09T07:04:27;44948.50;;;-137.01;83.83
8756;BME280;4414;42.670;23.228;2022-09-09T07:06:54;44933.19;;;-137.01;83.36
8756;BME280;4414;42.670;23.228;2022-09-09T07:09:21;44959.97;;;-137.01;83.05
8756;BME280;4414;42.670;23.228;2022-09-09T07:11:50;44935.09;;;-137.01;80.87
8756;BME280;4414;42.670;23.228;2022-09-09T07:14:18;44940.84;;;-137.01;79.70
8756;BME280;4414;42.670;23.228;2022-09-09T07:16:45;44944.66;;;-137.01;79.49
8756;BME280;4414;42.670;23.228;2022-09-09T07:19:13;44923.63;;;-137.01;78.71
8756;BME280;4414;42.670;23.228;2022-09-09T07:21:42;44961.88;;;-137.01;79.10
8756;BME280;4414;42.670;23.228;2022-09-09T07:24:09;44940.84;;;-137.01;79.35
8756;BME280;4414;42.670;23.228;2022-09-09T07:26:37;44956.16;;;-137.01;81.12
8756;BME280;4414;42.670;23.228;2022-09-09T07:29:04;44952.31;;;-137.01;79.59
8756;BME280;4414;42.670;23.228;2022-09-09T07:31:33;44979.09;;;-137.01;79.50
8756;BME280;4414;42.670;23.228;2022-09-09T07:34:01;44958.06;;;-137.01;77.12
8756;BME280;4414;42.670;23.228;2022-09-09T07:36:29;44958.06;;;-137.01;75.03
8756;BME280;4414;42.670;23.228;2022-09-09T07:38:58;44967.63;;;-137.01;75.79
8756;BME280;4414;42.670;23.228;2022-09-09T07:41:28;44984.84;;;-137.01;73.75
8756;BME280;4414;42.670;23.228;2022-09-09T07:43:55;44938.94;;;-137.01;73.99
8756;BME280;4414;42.670;23.228;2022-09-09T07:46:25;44971.44;;;-137.01;73.01
8756;BME280;4414;42.670;23.228;2022-09-09T07:48:53;44963.81;;;-137.01;72.53
8756;BME280;4414;42.670;23.228;2022-09-09T07:51:23;44952.31;;;-137.01;71.75
8756;BME280;4414;42.670;23.228;2022-09-09T07:53:53;44956.16;;;-137.01;71.67
8756;BME280;4414;42.670;23.228;2022-09-09T07:56:21;44961.88;;;-137.01;72.23
8756;BME280;4414;42.670;23.228;2022-09-09T07:58:49;44967.63;;;-137.01;70.55
8756;BME280;4414;42.670;23.228;2022-09-09T08:01:17;44994.41;;;-137.01;70.29
8756;BME280;4414;42.670;23.228;2022-09-09T08:03:45;44994.41;;;-137.01;68.03
8756;BME280;4414;42.670;23.228;2022-09-09T08:06:13;44975.28;;;-137.01;69.86
8756;BME280;4414;42.670;23.228;2022-09-09T08:08:40;44979.09;;;-137.01;70.24
8756;BME280;4414;42.670;23.228;2022-09-09T08:11:10;44981.00;;;-137.01;68.82
8756;BME280;4414;42.670;23.228;2022-09-09T08:13:39;45017.34;;;-137.01;67.42
8756;BME280;4414;42.670;23.228;2022-09-09T08:16:11;44984.84;;;-137.01;67.22
8756;BME280;4414;42.670;23.228;2022-09-09T08:18:39;44996.31;;;-137.01;65.99
8756;BME280;4414;42.670;23.228;2022-09-09T08:21:08;44986.75;;;-137.01;65.09
8756;BME280;4414;42.670;23.228;2022-09-09T08:23:37;44990.56;;;-137.01;66.22
8756;BME280;4414;42.670;23.228;2022-09-09T08:26:10;45013.53;;;-137.01;65.64
8756;BME280;4414;42.670;23.228;2022-09-09T08:28:39;44979.09;;;-137.01;66.62
8756;BME280;4414;42.670;23.228;2022-09-09T08:31:07;44984.84;;;-137.01;66.48
8756;BME280;4414;42.670;23.228;2022-09-09T08:33:34;44982.94;;;-137.01;66.64
8756;BME280;4414;42.670;23.228;2022-09-09T08:36:02;44986.75;;;-137.01;67.82
8756;BME280;4414;42.670;23.228;2022-09-09T08:38:29;44971.44;;;-137.01;66.71
8756;BME280;4414;42.670;23.228;2022-09-09T08:41:01;45019.28;;;-137.01;64.71
8756;BME280;4414;42.670;23.228;2022-09-09T08:43:31;45002.06;;;-137.01;65.38
8756;BME280;4414;42.670;23.228;2022-09-09T08:46:06;45011.63;;;-137.01;63.92
8756;BME280;4414;42.670;23.228;2022-09-09T08:48:43;45000.13;;;-137.01;63.15
8756;BME280;4414;42.670;23.228;2022-09-09T08:51:11;45009.72;;;-137.01;63.20
8756;BME280;4414;42.670;23.228;2022-09-09T08:53:43;45013.53;;;-137.01;66.22
8756;BME280;4414;42.670;23.228;2022-09-09T08:56:13;44982.94;;;-137.01;65.79
8756;BME280;4414;42.670;23.228;2022-09-09T08:58:43;45025.00;;;-137.01;65.10
8756;BME280;4414;42.670;23.228;2022-09-09T09:01:34;45025.00;;;-137.01;66.17
8756;BME280;4414;42.670;23.228;2022-09-09T09:04:07;45011.63;;;-137.01;63.64
8756;BME280;4414;42.670;23.228;2022-09-09T09:06:48;45023.09;;;-137.01;62.10
8756;BME280;4414;42.670;23.228;2022-09-09T09:09:21;45011.63;;;-137.01;62.24
8756;BME280;4414;42.670;23.228;2022-09-09T09:11:54;45019.28;;;-137.01;61.51
8756;BME280;4414;42.670;23.228;2022-09-09T09:14:23;45013.53;;;-137.01;62.72
8756;BME280;4414;42.670;23.228;2022-09-09T09:16:54;45026.91;;;-137.01;64.22
8756;BME280;4414;42.670;23.228;2022-09-09T09:19:23;45034.56;;;-137.01;62.18
8756;BME280;4414;42.670;23.228;2022-09-09T09:21:54;45017.34;;;-137.01;61.63
8756;BME280;4414;42.670;23.228;2022-09-09T09:24:30;45023.09;;;-137.01;60.77
8756;BME280;4414;42.670;23.228;2022-09-09T09:27:00;45003.97;;;-137.01;61.08
8756;BME280;4414;42.670;23.228;2022-09-09T09:29:34;45019.28;;;-137.01;60.57
8756;BME280;4414;42.670;23.228;2022-09-09T09:32:03;45040.31;;;-137.01;61.76
8756;BME280;4414;42.670;23.228;2022-09-09T09:34:30;45047.97;;;-137.01;57.83
8756;BME280;4414;42.670;23.228;2022-09-09T09:36:58;45026.91;;;-137.01;60.10
8756;BME280;4414;42.670;23.228;2022-09-09T09:39:28;45013.53;;;-137.01;59.22
8756;BME280;4414;42.670;23.228;2022-09-09T09:41:56;45002.06;;;-137.01;59.80
8756;BME280;4414;42.670;23.228;2022-09-09T09:44:26;45023.09;;;-137.01;60.57
8756;BME280;4414;42.670;23.228;2022-09-09T09:47:07;45011.63;;;-137.01;63.19
8756;BME280;4414;42.670;23.228;2022-09-09T09:49:34;45000.13;;;-137.01;60.60
8756;BME280;4414;42.670;23.228;2022-09-09T09:52:01;45017.34;;;-137.01;59.29
8756;BME280;4414;42.670;23.228;2022-09-09T09:54:30;45015.44;;;-137.01;59.88
8756;BME280;4414;42.670;23.228;2022-09-09T09:57:08;45026.91;;;-137.01;62.32
8756;BME280;4414;42.670;23.228;2022-09-09T09:59:36;45026.91;;;-137.01;60.21
8756;BME280;4414;42.670;23.228;2022-09-09T10:02:18;45032.66;;;-137.01;60.87
8756;BME280;4414;42.670;23.228;2022-09-09T10:04:45;45026.91;;;-137.01;58.15
8756;BME280;4414;42.670;23.228;2022-09-09T10:07:12;45011.63;;;-137.01;58.70
8756;BME280;4414;42.670;23.228;2022-09-09T10:09:40;44994.41;;;-137.01;59.71
8756;BME280;4414;42.670;23.228;2022-09-09T10:12:18;45030.75;;;-137.01;62.09
8756;BME280;4414;42.670;23.228;2022-09-09T10:14:54;45036.47;;;-137.01;63.29
8756;BME280;4414;42.670;23.228;2022-09-09T10:17:29;45025.00;;;-137.01;65.44
8756;BME280;4414;42.670;23.228;2022-09-09T10:20:14;45009.72;;;-137.01;61.64
8756;BME280;4414;42.670;23.228;2022-09-09T10:22:48;45061.34;;;-137.01;62.38
8756;BME280;4414;42.670;23.228;2022-09-09T10:25:31;45030.75;;;-137.01;62.40
8756;BME280;4414;42.670;23.228;2022-09-09T10:28:26;45026.91;;;-137.01;61.59
8756;BME280;4414;42.670;23.228;2022-09-09T10:31:08;44975.28;;;-137.01;62.80
8756;BME280;4414;42.670;23.228;2022-09-09T10:33:47;45003.97;;;-137.01;63.57
8756;BME280;4414;42.670;23.228;2022-09-09T10:36:19;44988.66;;;-137.01;64.16
8756;BME280;4414;42.670;23.228;2022-09-09T10:38:47;44990.56;;;-137.01;64.51
8756;BME280;4414;42.670;23.228;2022-09-09T10:41:19;44990.56;;;-137.01;65.46
8756;BME280;4414;42.670;23.228;2022-09-09T10:46:55;44994.41;;;-137.01;66.65
8756;BME280;4414;42.670;23.228;2022-09-09T10:49:44;44990.56;;;-137.01;67.49
8756;BME280;4414;42.670;23.228;2022-09-09T10:52:23;44990.56;;;-137.01;66.42
8756;BME280;4414;42.670;23.228;2022-09-09T10:54:56;44994.41;;;-137.01;67.06
8756;BME280;4414;42.670;23.228;2022-09-09T10:57:30;44982.94;;;-137.01;67.88
8756;BME280;4414;42.670;23.228;2022-09-09T11:00:01;44984.84;;;-137.01;67.22
8756;BME280;4414;42.670;23.228;2022-09-09T11:02:31;45002.06;;;-137.01;68.42
8756;BME280;4414;42.670;23.228;2022-09-09T11:05:03;44977.19;;;-137.01;67.41
8756;BME280;4414;42.670;23.228;2022-09-09T11:07:36;44992.50;;;-137.01;69.38
8756;BME280;4414;42.670;23.228;2022-09-09T11:10:16;45023.09;;;-137.01;67.22
8756;BME280;4414;42.670;23.228;2022-09-09T11:12:46;45009.72;;;-137.01;65.93
8756;BME280;4414;42.670;23.228;2022-09-09T11:15:20;45040.31;;;-137.01;65.91
8756;BME280;4414;42.670;23.228;2022-09-09T11:17:52;45009.72;;;-137.01;67.11
8756;BME280;4414;42.670;23.228;2022-09-09T11:20:21;45013.53;;;-137.01;67.30
8756;BME280;4414;42.670;23.228;2022-09-09T11:22:52;45038.41;;;-137.01;66.30
8756;BME280;4414;42.670;23.228;2022-09-09T11:25:26;45015.44;;;-137.01;66.34
8756;BME280;4414;42.670;23.228;2022-09-09T11:28:10;45025.00;;;-137.01;64.79
8756;BME280;4414;42.670;23.228;2022-09-09T11:30:50;45021.19;;;-137.01;65.16
8756;BME280;4414;42.670;23.228;2022-09-09T11:33:37;45015.44;;;-137.01;66.92
8756;BME280;4414;42.670;23.228;2022-09-09T11:39:26;45034.56;;;-137.01;66.23
8756;BME280;4414;42.670;23.228;2022-09-09T11:42:06;45049.88;;;-137.01;67.67
8756;BME280;4414;42.670;23.228;2022-09-09T11:44:33;45026.91;;;-137.01;68.25
8756;BME280;4414;42.670;23.228;2022-09-09T11:47:00;45015.44;;;-137.01;67.33
8756;BME280;4414;42.670;23.228;2022-09-09T11:49:29;45023.09;;;-137.01;68.03
8756;BME280;4414;42.670;23.228;2022-09-09T11:51:57;45021.19;;;-137.01;66.64
8756;BME280;4414;42.670;23.228;2022-09-09T11:54:30;45049.88;;;-137.01;68.31
8756;BME280;4414;42.670;23.228;2022-09-09T11:56:57;45040.31;;;-137.01;64.08
8756;BME280;4414;42.670;23.228;2022-09-09T11:59:26;45051.78;;;-137.01;63.55
8756;BME280;4414;42.670;23.228;2022-09-09T12:01:58;45051.78;;;-137.01;63.62
8756;BME280;4414;42.670;23.228;2022-09-09T12:04:29;45055.63;;;-137.01;63.65
8756;BME280;4414;42.670;23.228;2022-09-09T12:06:59;45032.66;;;-137.01;63.86
8756;BME280;4414;42.670;23.228;2022-09-09T12:09:33;45021.19;;;-137.01;62.29
8756;BME280;4414;42.670;23.228;2022-09-09T12:12:17;45047.97;;;-137.01;62.66
8756;BME280;4414;42.670;23.228;2022-09-09T12:14:59;45044.13;;;-137.01;63.52
8756;BME280;4414;42.670;23.228;2022-09-09T12:17:28;45074.75;;;-137.01;61.84
8756;BME280;4414;42.670;23.228;2022-09-09T12:20:12;45046.06;;;-137.01;62.45
8756;BME280;4414;42.670;23.228;2022-09-09T12:22:55;45047.97;;;-137.01;62.47
8756;BME280;4414;42.670;23.228;2022-09-09T12:25:32;45067.09;;;-137.01;62.00
8756;BME280;4414;42.670;23.228;2022-09-09T12:28:05;45044.13;;;-137.01;62.12
8756;BME280;4414;42.670;23.228;2022-09-09T12:30:42;45051.78;;;-137.01;60.40
8756;BME280;4414;42.670;23.228;2022-09-09T12:33:13;45019.28;;;-137.01;62.15
8756;BME280;4414;42.670;23.228;2022-09-09T12:35:43;45040.31;;;-137.01;61.54
8756;BME280;4414;42.670;23.228;2022-09-09T12:38:13;45030.75;;;-137.01;60.66
8756;BME280;4414;42.670;23.228;2022-09-09T12:40:54;45038.41;;;-137.01;60.91
8756;BME280;4414;42.670;23.228;2022-09-09T12:43:23;45038.41;;;-137.01;62.11
8756;BME280;4414;42.670;23.228;2022-09-09T12:45:50;45017.34;;;-137.01;62.98
8756;BME280;4414;42.670;23.228;2022-09-09T12:48:27;45036.47;;;-137.01;62.65
8756;BME280;4414;42.670;23.228;2022-09-09T12:50:54;45013.53;;;-137.01;63.74
8756;BME280;4414;42.670;23.228;2022-09-09T12:53:24;45034.56;;;-137.01;63.87
8756;BME280;4414;42.670;23.228;2022-09-09T12:55:56;45042.22;;;-137.01;64.35
8756;BME280;4414;42.670;23.228;2022-09-09T12:58:23;45025.00;;;-137.01;63.50
8756;BME280;4414;42.670;23.228;2022-09-09T13:00:52;45017.34;;;-137.01;63.73
8756;BME280;4414;42.670;23.228;2022-09-09T13:03:22;45023.09;;;-137.01;64.75
8756;BME280;4414;42.670;23.228;2022-09-09T13:05:49;45026.91;;;-137.01;63.07
8756;BME280;4414;42.670;23.228;2022-09-09T13:08:16;45074.75;;;-137.01;62.82
8756;BME280;4414;42.670;23.228;2022-09-09T13:10:48;45053.69;;;-137.01;63.75
8756;BME280;4414;42.670;23.228;2022-09-09T13:13:22;45034.56;;;-137.01;63.43
8756;BME280;4414;42.670;23.228;2022-09-09T13:15:51;45036.47;;;-137.01;64.15